Concepcion del Uruguay, Argentina
Current Conditions -  °F | °C
As of 1:00 PM on Monday 24 Nov 2014 (Local Time) from SUSO Reporting Station
Broken Clouds Broken Clouds  
Wind Chill: 88°   Ceiling: 6700
Heat Index: 88°   Visibility: 6mi
Dew Point: 63°   Wind: 12mph
Humidity: 43%   Direction: 340°NNW
Pressure: 29.74"   Gusts: NA
Location:  32.58°S, 58.58°W
Report Text: SUSO 241600Z 34010KT 9999 SCT030 BKN067 31/17 Q1007
Loading
Personal Weather Stations






























Interactive Weather Map New forecast layout! Learn more

10-Day Weather Forecast

Advertisements
Track Severe Weather on mobile